Time;durP1;ratioP1;P1;durP2;ratioP2;P2;SDS_P1;SDS_P2;PMS_P1;PMS_P2;Temp;Humidity;BMP_temperature;BMP_pressure;BME280_temperature;BME280_humidity;BME280_pressure;Samples;Min_cycle;Max_cycle;Signal;HPM_P1;HPM_P2
2023/10/02 00:03:39;;;;;;;32.63;15.63;;;;;;;;;;5089964;28;20536;-73
2023/10/02 00:06:09;;;;;;;29.35;15.25;;;;;;;;;;5073225;28;20817;-73
2023/10/02 00:08:49;;;;;;;29.98;14.73;;;;;;;;;;5078273;28;20235;-73
2023/10/02 00:11:37;;;;;;;32.58;17.13;;;;;;;;;;5082518;28;20215;-73
2023/10/02 00:14:19;;;;;;;34.60;16.38;;;;;;;;;;5086455;28;20284;-72
2023/10/02 00:16:59;;;;;;;33.90;16.20;;;;;;;;;;5060638;28;20701;-73
2023/10/02 00:19:36;;;;;;;33.47;16.02;;;;;;;;;;5076162;28;20631;-74
2023/10/02 00:22:05;;;;;;;33.10;16.02;;;;;;;;;;5089778;28;20566;-74
2023/10/02 00:24:32;;;;;;;35.50;16.33;;;;;;;;;;5094304;28;20200;-74
2023/10/02 00:26:58;;;;;;;36.90;17.10;;;;;;;;;;5092310;28;20207;-74
2023/10/02 00:29:28;;;;;;;33.45;16.67;;;;;;;;;;5074853;28;20210;-74
2023/10/02 00:31:54;;;;;;;34.10;16.73;;;;;;;;;;5102356;28;20290;-74
2023/10/02 00:34:32;;;;;;;33.25;16.15;;;;;;;;;;5095936;28;20218;-74
2023/10/02 00:37:01;;;;;;;32.78;16.25;;;;;;;;;;5092726;28;20218;-73
2023/10/02 00:39:32;;;;;;;34.22;16.92;;;;;;;;;;5093748;28;21109;-74
2023/10/02 00:42:17;;;;;;;32.95;16.38;;;;;;;;;;5083869;28;20566;-73
2023/10/02 00:44:52;;;;;;;31.95;17.23;;;;;;;;;;5082894;28;20622;-73
2023/10/02 00:47:42;;;;;;;33.17;17.77;;;;;;;;;;5074450;28;20568;-74
2023/10/02 00:50:10;;;;;;;31.63;16.85;;;;;;;;;;5087641;28;20616;-74
2023/10/02 00:52:41;;;;;;;29.67;15.63;;;;;;;;;;5090208;28;20576;-73
2023/10/02 00:55:09;;;;;;;32.28;16.63;;;;;;;;;;5092326;28;20196;-73
2023/10/02 00:57:38;;;;;;;29.00;15.25;;;;;;;;;;5086479;28;20184;-73
2023/10/02 01:00:21;;;;;;;33.08;16.55;;;;;;;;;;5102181;28;20205;-74
2023/10/02 01:02:49;;;;;;;36.33;17.58;;;;;;;;;;5096157;28;20546;-73
2023/10/02 01:05:16;;;;;;;35.10;17.20;;;;;;;;;;5091803;28;20706;-74
2023/10/02 01:07:43;;;;;;;33.60;17.13;;;;;;;;;;5072392;28;20195;-73
2023/10/02 01:10:17;;;;;;;31.55;15.98;;;;;;;;;;5093130;28;20188;-73
2023/10/02 01:12:49;;;;;;;32.95;16.15;;;;;;;;;;5073199;28;20184;-73
2023/10/02 01:15:16;;;;;;;33.17;16.10;;;;;;;;;;5089317;28;20180;-73
2023/10/02 01:17:45;;;;;;;33.63;16.80;;;;;;;;;;5091679;28;20325;-73
2023/10/02 01:23:11;;;;;;;32.00;16.85;;;;;;;;;;5088895;28;20199;-73
2023/10/02 01:25:39;;;;;;;33.47;18.58;;;;;;;;;;5083064;28;20527;-73
2023/10/02 01:28:05;;;;;;;31.45;17.95;;;;;;;;;;5075777;28;20188;-73
2023/10/02 01:30:30;;;;;;;34.67;17.77;;;;;;;;;;5083865;28;20385;-73
2023/10/02 01:33:12;;;;;;;28.10;15.13;;;;;;;;;;5083222;28;20200;-73
2023/10/02 01:35:53;;;;;;;32.45;18.40;;;;;;;;;;5070141;28;20591;-72
2023/10/02 01:38:31;;;;;;;34.10;17.98;;;;;;;;;;5096062;28;20621;-73
2023/10/02 01:41:04;;;;;;;31.25;16.10;;;;;;;;;;5090411;28;20191;-73
2023/10/02 01:43:44;;;;;;;29.73;16.80;;;;;;;;;;5091767;28;20666;-74
2023/10/02 01:46:11;;;;;;;30.80;17.40;;;;;;;;;;5092336;28;20231;-73
2023/10/02 01:48:39;;;;;;;34.05;16.65;;;;;;;;;;5094689;28;20632;-73
2023/10/02 01:51:15;;;;;;;33.05;18.42;;;;;;;;;;5100724;28;20203;-73
2023/10/02 01:53:55;;;;;;;31.88;17.08;;;;;;;;;;5076258;28;20206;-73
2023/10/02 01:56:25;;;;;;;34.33;17.05;;;;;;;;;;5084204;28;20192;-73
2023/10/02 01:58:52;;;;;;;34.78;16.90;;;;;;;;;;5092557;28;20611;-73
2023/10/02 02:01:20;;;;;;;36.50;17.38;;;;;;;;;;5087701;28;20666;-72
2023/10/02 02:03:48;;;;;;;33.92;17.20;;;;;;;;;;5089994;28;20234;-73
2023/10/02 02:06:22;;;;;;;35.60;16.20;;;;;;;;;;5091863;28;20672;-74
2023/10/02 02:08:53;;;;;;;31.92;16.27;;;;;;;;;;5102475;28;20304;-73
2023/10/02 02:11:21;;;;;;;35.65;17.05;;;;;;;;;;5093253;28;20550;-74
2023/10/02 02:13:52;;;;;;;32.22;16.95;;;;;;;;;;5091783;28;20180;-73
2023/10/02 02:16:30;;;;;;;30.02;15.60;;;;;;;;;;5091545;28;20404;-73
2023/10/02 02:18:56;;;;;;;31.15;16.30;;;;;;;;;;5055518;28;20284;-73
2023/10/02 02:21:25;;;;;;;34.08;16.63;;;;;;;;;;5084805;28;20230;-73
2023/10/02 02:24:03;;;;;;;34.88;17.55;;;;;;;;;;5077388;28;20199;-73
2023/10/02 02:26:30;;;;;;;33.35;17.10;;;;;;;;;;5085703;28;20314;-74
2023/10/02 02:28:56;;;;;;;31.15;15.70;;;;;;;;;;5082734;28;20199;-73
2023/10/02 02:31:31;;;;;;;34.58;16.88;;;;;;;;;;5072346;28;20525;-73
2023/10/02 02:34:14;;;;;;;33.78;16.92;;;;;;;;;;5099071;28;20191;-74
2023/10/02 02:36:41;;;;;;;35.28;17.00;;;;;;;;;;5086987;28;20184;-73
2023/10/02 02:39:17;;;;;;;37.25;17.90;;;;;;;;;;5081001;28;20636;-74
2023/10/02 02:41:44;;;;;;;36.55;17.08;;;;;;;;;;5086359;28;20248;-74
2023/10/02 02:44:36;;;;;;;34.55;16.85;;;;;;;;;;5081053;28;20197;-73
2023/10/02 02:47:07;;;;;;;34.35;17.23;;;;;;;;;;5084795;28;20652;-73
2023/10/02 02:49:50;;;;;;;33.33;17.60;;;;;;;;;;5078078;28;20806;-73
2023/10/02 02:52:24;;;;;;;34.47;15.85;;;;;;;;;;5068315;28;20207;-72
2023/10/02 02:54:58;;;;;;;30.77;16.27;;;;;;;;;;5072641;28;20336;-73
2023/10/02 02:57:27;;;;;;;31.95;16.95;;;;;;;;;;5082939;28;20553;-74
2023/10/02 03:02:52;;;;;;;35.67;17.85;;;;;;;;;;5089457;28;20284;-73
2023/10/02 03:05:21;;;;;;;35.35;17.88;;;;;;;;;;5069339;28;20212;-73
2023/10/02 03:07:49;;;;;;;29.95;16.15;;;;;;;;;;5093497;28;20667;-71
2023/10/02 03:10:16;;;;;;;37.25;17.02;;;;;;;;;;5093426;28;20605;-73
2023/10/02 03:12:48;;;;;;;27.10;16.10;;;;;;;;;;5084969;28;20226;-73
2023/10/02 03:15:45;;;;;;;33.00;16.30;;;;;;;;;;5049715;28;20187;-73
2023/10/02 03:18:22;;;;;;;35.42;18.52;;;;;;;;;;5085876;28;20212;-73
2023/10/02 03:20:52;;;;;;;31.98;15.50;;;;;;;;;;5083935;28;20202;-73
2023/10/02 03:23:18;;;;;;;31.42;17.20;;;;;;;;;;5077193;28;20180;-73
2023/10/02 03:25:45;;;;;;;29.75;16.20;;;;;;;;;;5072664;28;20698;-73
2023/10/02 03:28:32;;;;;;;33.53;17.30;;;;;;;;;;5081999;28;20192;-73
2023/10/02 03:30:58;;;;;;;32.05;16.83;;;;;;;;;;5085444;28;20188;-73
2023/10/02 03:33:25;;;;;;;34.28;17.38;;;;;;;;;;5055715;28;20279;-73
2023/10/02 03:38:48;;;;;;;32.75;16.73;;;;;;;;;;5059079;28;20578;-73
2023/10/02 03:41:14;;;;;;;35.17;17.52;;;;;;;;;;5090595;28;20284;-73
2023/10/02 03:43:49;;;;;;;35.20;17.48;;;;;;;;;;5066822;28;20596;-73
2023/10/02 03:46:35;;;;;;;30.00;15.98;;;;;;;;;;5070616;28;20211;-72
2023/10/02 03:49:04;;;;;;;30.27;15.82;;;;;;;;;;5092387;28;20209;-73
2023/10/02 03:51:36;;;;;;;29.27;15.80;;;;;;;;;;5059104;28;20263;-72
2023/10/02 03:54:17;;;;;;;37.83;17.15;;;;;;;;;;5087254;28;20185;-73
2023/10/02 03:56:51;;;;;;;29.65;16.38;;;;;;;;;;5074922;28;20176;-74
2023/10/02 03:59:25;;;;;;;31.90;15.02;;;;;;;;;;5066180;28;20180;-73
2023/10/02 04:01:51;;;;;;;29.30;15.75;;;;;;;;;;5071315;28;20688;-72
2023/10/02 04:06:43;;;;;;;35.63;17.02;;;;;;;;;;5090916;28;20275;-73
2023/10/02 04:11:40;;;;;;;33.72;15.98;;;;;;;;;;5080445;28;20516;-73
2023/10/02 04:14:18;;;;;;;31.45;16.83;;;;;;;;;;5067664;28;20551;-73
2023/10/02 04:16:46;;;;;;;30.92;16.40;;;;;;;;;;5088203;28;20195;-74
2023/10/02 04:19:16;;;;;;;31.83;16.25;;;;;;;;;;5085624;28;20309;-74
2023/10/02 04:21:42;;;;;;;29.67;15.02;;;;;;;;;;5070703;28;20612;-72
2023/10/02 04:24:09;;;;;;;33.33;15.73;;;;;;;;;;5072339;28;20313;-73
2023/10/02 04:26:36;;;;;;;35.33;15.45;;;;;;;;;;5089250;28;20217;-73
2023/10/02 04:32:04;;;;;;;33.90;15.18;;;;;;;;;;5065756;28;20252;-72
2023/10/02 04:34:31;;;;;;;29.17;15.20;;;;;;;;;;5082331;28;20270;-72
2023/10/02 04:36:57;;;;;;;31.70;15.48;;;;;;;;;;5088897;28;20188;-70
2023/10/02 04:42:14;;;;;;;29.67;14.20;;;;;;;;;;5089509;28;20186;-71
2023/10/02 04:44:59;;;;;;;32.95;14.60;;;;;;;;;;5082886;28;20567;-72
2023/10/02 04:47:30;;;;;;;25.38;13.82;;;;;;;;;;5069266;28;20232;-74
2023/10/02 04:52:56;;;;;;;26.92;14.18;;;;;;;;;;5089466;28;20184;-73
2023/10/02 04:55:25;;;;;;;31.38;14.48;;;;;;;;;;5089350;28;20188;-72
2023/10/02 04:57:54;;;;;;;28.73;14.38;;;;;;;;;;5083473;28;20189;-73
2023/10/02 05:00:32;;;;;;;30.00;13.68;;;;;;;;;;5067319;28;20586;-71
2023/10/02 05:05:49;;;;;;;28.08;13.93;;;;;;;;;;5100800;28;20207;-73
2023/10/02 05:08:20;;;;;;;29.58;14.48;;;;;;;;;;5090173;28;20272;-70
2023/10/02 05:10:56;;;;;;;25.95;13.15;;;;;;;;;;5094897;28;20198;-73
2023/10/02 05:16:11;;;;;;;27.67;13.80;;;;;;;;;;5091759;28;20282;-73
2023/10/02 05:18:36;;;;;;;31.58;14.13;;;;;;;;;;5100959;28;20188;-72
2023/10/02 05:21:03;;;;;;;25.98;13.63;;;;;;;;;;5106474;28;20729;-72
2023/10/02 05:23:29;;;;;;;27.52;14.30;;;;;;;;;;5074643;28;20673;-71
2023/10/02 05:26:00;;;;;;;25.42;13.32;;;;;;;;;;5094464;28;20207;-72
2023/10/02 05:28:25;;;;;;;30.13;14.82;;;;;;;;;;5090125;28;20184;-70
2023/10/02 05:30:51;;;;;;;30.40;14.55;;;;;;;;;;5073454;28;20185;-72
2023/10/02 05:33:36;;;;;;;26.60;13.38;;;;;;;;;;5089534;28;20223;-72
2023/10/02 05:36:09;;;;;;;28.48;14.02;;;;;;;;;;5074909;28;20518;-71
2023/10/02 05:38:34;;;;;;;27.30;14.05;;;;;;;;;;5088870;28;20607;-71
2023/10/02 05:41:03;;;;;;;28.02;13.80;;;;;;;;;;5091621;28;20208;-72
2023/10/02 05:43:31;;;;;;;32.60;14.50;;;;;;;;;;5077986;28;20211;-72
2023/10/02 05:45:57;;;;;;;28.98;13.23;;;;;;;;;;5087959;28;20705;-72
2023/10/02 05:50:59;;;;;;;29.90;13.85;;;;;;;;;;5092202;28;20266;-73
2023/10/02 05:53:34;;;;;;;26.25;14.20;;;;;;;;;;5088949;28;20673;-73
2023/10/02 05:56:12;;;;;;;29.63;14.02;;;;;;;;;;5081251;28;20184;-72
2023/10/02 05:58:43;;;;;;;28.52;14.20;;;;;;;;;;5089032;28;20179;-72
2023/10/02 06:01:23;;;;;;;30.70;14.93;;;;;;;;;;5072368;28;20654;-72
2023/10/02 06:03:58;;;;;;;31.63;15.23;;;;;;;;;;5090506;28;20227;-72
2023/10/02 06:06:25;;;;;;;32.45;14.52;;;;;;;;;;5095349;28;20218;-73
2023/10/02 06:08:52;;;;;;;31.25;14.45;;;;;;;;;;5077083;28;20644;-73
2023/10/02 06:11:31;;;;;;;32.92;13.68;;;;;;;;;;5069732;28;20512;-73
2023/10/02 06:14:09;;;;;;;29.75;14.48;;;;;;;;;;5075759;28;20187;-71
2023/10/02 06:16:36;;;;;;;26.85;13.38;;;;;;;;;;5078070;28;20545;-73
2023/10/02 06:19:01;;;;;;;30.08;14.15;;;;;;;;;;5098048;28;20295;-74
2023/10/02 06:21:31;;;;;;;25.85;13.57;;;;;;;;;;5098754;28;20560;-73
2023/10/02 06:23:58;;;;;;;30.30;14.23;;;;;;;;;;5084790;28;20258;-73
2023/10/02 06:26:29;;;;;;;24.88;12.95;;;;;;;;;;5082270;28;20298;-73
2023/10/02 06:31:50;;;;;;;27.30;13.43;;;;;;;;;;5084981;28;20765;-71
2023/10/02 06:34:16;;;;;;;26.77;13.35;;;;;;;;;;5085502;28;20270;-73
2023/10/02 06:37:02;;;;;;;29.25;13.48;;;;;;;;;;5083502;28;20625;-71
2023/10/02 06:39:29;;;;;;;33.17;13.73;;;;;;;;;;5078560;28;20192;-72
2023/10/02 06:42:04;;;;;;;23.38;12.38;;;;;;;;;;5088906;28;20195;-71
2023/10/02 06:44:52;;;;;;;27.02;13.32;;;;;;;;;;5074421;28;20577;-71
2023/10/02 06:47:21;;;;;;;28.77;12.63;;;;;;;;;;5078068;28;20191;-71
2023/10/02 06:49:47;;;;;;;23.05;12.20;;;;;;;;;;5095373;28;20187;-71
2023/10/02 06:52:15;;;;;;;23.98;12.95;;;;;;;;;;5091025;28;20904;-71
2023/10/02 06:54:55;;;;;;;32.13;12.95;;;;;;;;;;5096687;28;20253;-71
2023/10/02 06:57:24;;;;;;;28.33;12.68;;;;;;;;;;5073536;28;20198;-72
2023/10/02 06:59:53;;;;;;;22.60;12.27;;;;;;;;;;5075993;28;20237;-71
2023/10/02 07:02:18;;;;;;;27.55;13.38;;;;;;;;;;5084630;28;20292;-72
2023/10/02 07:04:46;;;;;;;26.70;13.23;;;;;;;;;;5096853;28;20619;-73
2023/10/02 07:07:12;;;;;;;26.98;13.80;;;;;;;;;;5083953;28;20271;-72
2023/10/02 07:09:39;;;;;;;31.50;13.18;;;;;;;;;;5066504;28;20217;-72
2023/10/02 07:12:08;;;;;;;22.02;11.60;;;;;;;;;;5072969;28;20195;-72
2023/10/02 07:14:36;;;;;;;30.38;13.60;;;;;;;;;;5071947;28;20224;-72
2023/10/02 07:17:11;;;;;;;27.10;12.90;;;;;;;;;;5084194;28;20612;-74
2023/10/02 07:19:43;;;;;;;27.92;13.50;;;;;;;;;;5069609;28;20279;-73
2023/10/02 07:22:16;;;;;;;26.58;12.75;;;;;;;;;;5100568;28;20406;-72
2023/10/02 07:24:42;;;;;;;27.85;13.88;;;;;;;;;;5075526;28;20217;-69
2023/10/02 07:27:22;;;;;;;24.73;13.30;;;;;;;;;;5076376;28;20617;-69
2023/10/02 07:29:51;;;;;;;23.50;12.90;;;;;;;;;;5088602;28;20184;-73
2023/10/02 07:32:21;;;;;;;25.58;12.63;;;;;;;;;;5087446;28;20192;-74
2023/10/02 07:34:53;;;;;;;24.42;12.55;;;;;;;;;;5081457;28;20226;-73
2023/10/02 07:37:23;;;;;;;23.90;12.57;;;;;;;;;;5076181;28;20218;-72
2023/10/02 07:39:58;;;;;;;24.20;12.35;;;;;;;;;;5085608;28;20193;-74
2023/10/02 07:42:28;;;;;;;24.15;12.82;;;;;;;;;;5062627;28;20248;-74
2023/10/02 07:44:56;;;;;;;25.40;12.73;;;;;;;;;;5080729;28;20205;-74
2023/10/02 07:47:22;;;;;;;29.50;13.20;;;;;;;;;;5079909;28;20249;-74
2023/10/02 07:49:51;;;;;;;26.98;13.05;;;;;;;;;;5074877;28;20599;-73
2023/10/02 07:52:26;;;;;;;28.15;13.52;;;;;;;;;;5053530;28;20188;-74
2023/10/02 07:55:01;;;;;;;23.15;12.38;;;;;;;;;;5082292;28;20279;-73
2023/10/02 07:57:32;;;;;;;27.92;13.95;;;;;;;;;;5083068;28;20188;-74
2023/10/02 08:00:05;;;;;;;25.67;12.85;;;;;;;;;;5089265;28;20509;-73
2023/10/02 08:02:33;;;;;;;27.60;13.20;;;;;;;;;;5090230;28;20916;-72
2023/10/02 08:05:03;;;;;;;30.05;14.52;;;;;;;;;;5083175;28;20206;-73
2023/10/02 08:07:29;;;;;;;28.63;13.55;;;;;;;;;;5070262;28;20663;-71
2023/10/02 08:09:57;;;;;;;29.65;15.30;;;;;;;;;;5069884;28;20192;-68
2023/10/02 08:12:29;;;;;;;31.25;13.48;;;;;;;;;;5069245;28;20200;-72
2023/10/02 08:15:03;;;;;;;26.60;13.45;;;;;;;;;;5059083;28;20191;-72
2023/10/02 08:19:59;;;;;;;27.45;13.38;;;;;;;;;;5074398;28;20220;-72
2023/10/02 08:22:44;;;;;;;29.20;14.15;;;;;;;;;;5070917;28;20188;-73
2023/10/02 08:25:14;;;;;;;25.85;13.90;;;;;;;;;;5072570;28;20228;-73
2023/10/02 08:27:58;;;;;;;29.55;14.25;;;;;;;;;;5050407;28;20192;-74
2023/10/02 08:30:28;;;;;;;28.60;13.45;;;;;;;;;;5079415;28;20184;-71
2023/10/02 08:33:09;;;;;;;29.83;14.45;;;;;;;;;;5059247;28;20642;-74
2023/10/02 08:35:39;;;;;;;33.50;14.43;;;;;;;;;;5066238;28;20258;-75
2023/10/02 08:38:21;;;;;;;32.15;15.32;;;;;;;;;;5079908;28;20226;-74
2023/10/02 08:41:00;;;;;;;32.90;14.35;;;;;;;;;;5072072;28;20291;-72
2023/10/02 08:43:32;;;;;;;29.80;14.15;;;;;;;;;;5072955;28;20226;-73
2023/10/02 08:45:58;;;;;;;29.83;15.23;;;;;;;;;;5077456;28;20520;-74
2023/10/02 08:48:25;;;;;;;30.08;15.10;;;;;;;;;;5068847;28;20212;-73
2023/10/02 08:50:57;;;;;;;28.92;15.07;;;;;;;;;;5069739;28;20643;-74
2023/10/02 08:53:23;;;;;;;32.17;14.05;;;;;;;;;;5067762;28;20197;-75
2023/10/02 08:56:00;;;;;;;29.85;14.55;;;;;;;;;;5066658;28;20192;-73
2023/10/02 08:58:27;;;;;;;27.20;14.43;;;;;;;;;;5066459;28;20224;-74
2023/10/02 09:03:42;;;;;;;28.10;14.57;;;;;;;;;;5092717;28;20230;-74
2023/10/02 09:09:12;;;;;;;30.02;14.32;;;;;;;;;;5093623;28;20194;-75
2023/10/02 09:11:39;;;;;;;28.35;14.20;;;;;;;;;;5088330;28;20192;-75
2023/10/02 09:19:38;;;;;;;26.17;13.35;;;;;;;;;;5088472;28;20494;-74
2023/10/02 09:22:07;;;;;;;29.75;14.13;;;;;;;;;;5091468;28;20267;-72
2023/10/02 09:24:40;;;;;;;32.67;14.63;;;;;;;;;;5078605;28;20235;-70
2023/10/02 09:27:25;;;;;;;26.50;13.85;;;;;;;;;;5100940;28;20594;-73
2023/10/02 09:30:15;;;;;;;26.88;14.20;;;;;;;;;;5108648;28;20199;-73
2023/10/02 09:32:49;;;;;;;26.95;13.73;;;;;;;;;;5076649;28;20653;-73
2023/10/02 09:38:04;;;;;;;28.13;14.23;;;;;;;;;;5088511;28;20248;-72
2023/10/02 09:40:53;;;;;;;28.38;14.70;;;;;;;;;;5074417;28;20184;-74
2023/10/02 09:43:24;;;;;;;32.92;14.93;;;;;;;;;;5095576;28;20240;-74
2023/10/02 09:46:06;;;;;;;29.48;14.73;;;;;;;;;;5088944;28;20216;-75
2023/10/02 09:48:46;;;;;;;28.45;13.85;;;;;;;;;;5088553;28;20183;-74
2023/10/02 09:51:30;;;;;;;27.05;13.20;;;;;;;;;;5080423;28;20710;-72
2023/10/02 09:54:18;;;;;;;26.15;14.05;;;;;;;;;;5072930;28;20196;-71
2023/10/02 09:57:04;;;;;;;25.63;13.52;;;;;;;;;;5076003;28;20188;-74
2023/10/02 09:59:37;;;;;;;32.03;14.32;;;;;;;;;;5078588;28;20259;-72
2023/10/02 10:02:15;;;;;;;31.50;14.38;;;;;;;;;;5077827;28;20212;-73
2023/10/02 10:05:00;;;;;;;28.48;13.77;;;;;;;;;;5101169;28;20633;-73
2023/10/02 10:10:27;;;;;;;29.30;13.95;;;;;;;;;;5082779;28;20196;-74
2023/10/02 10:12:58;;;;;;;29.90;13.73;;;;;;;;;;5065061;28;20371;-69
2023/10/02 10:15:25;;;;;;;31.90;15.82;;;;;;;;;;5071157;28;20203;-74
2023/10/02 10:17:51;;;;;;;25.67;13.20;;;;;;;;;;5080458;28;20200;-72
2023/10/02 10:20:25;;;;;;;29.75;14.55;;;;;;;;;;5081481;28;20191;-71
2023/10/02 10:22:51;;;;;;;29.17;14.77;;;;;;;;;;5108873;28;20217;-73
2023/10/02 10:28:06;;;;;;;29.00;14.13;;;;;;;;;;5097037;28;20193;-74
2023/10/02 10:30:39;;;;;;;25.02;14.25;;;;;;;;;;5073878;28;20223;-73
2023/10/02 10:35:52;;;;;;;28.77;14.45;;;;;;;;;;5089663;28;20181;-74
2023/10/02 10:38:29;;;;;;;30.00;14.38;;;;;;;;;;5081321;28;20211;-73
2023/10/02 10:41:00;;;;;;;28.25;14.82;;;;;;;;;;5081394;28;20299;-70
2023/10/02 10:43:43;;;;;;;27.92;14.32;;;;;;;;;;5064603;28;20189;-72
2023/10/02 10:46:29;;;;;;;26.88;14.25;;;;;;;;;;5048714;28;20212;-72
2023/10/02 10:49:10;;;;;;;27.80;13.73;;;;;;;;;;5094449;28;20226;-71
2023/10/02 10:51:36;;;;;;;24.27;13.38;;;;;;;;;;5079869;28;20194;-71
2023/10/02 10:54:27;;;;;;;27.15;13.80;;;;;;;;;;5076891;28;20184;-73
2023/10/02 11:00:23;;;;;;;28.88;14.45;;;;;;;;;;5087457;28;20189;-73
2023/10/02 11:02:48;;;;;;;25.73;13.15;;;;;;;;;;5068121;28;20225;-74
2023/10/02 11:05:19;;;;;;;23.92;13.40;;;;;;;;;;5087138;28;20227;-73
2023/10/02 11:07:47;;;;;;;28.33;13.85;;;;;;;;;;5042087;28;20189;-72
2023/10/02 11:10:18;;;;;;;26.00;13.80;;;;;;;;;;5067030;28;20193;-71
2023/10/02 11:12:56;;;;;;;25.48;13.70;;;;;;;;;;5074600;28;20284;-74
2023/10/02 11:15:46;;;;;;;24.30;13.43;;;;;;;;;;5064744;28;20191;-74
2023/10/02 11:18:18;;;;;;;30.30;13.43;;;;;;;;;;5065299;28;20208;-70
2023/10/02 11:20:49;;;;;;;24.50;13.63;;;;;;;;;;5069681;28;20548;-71
2023/10/02 11:23:22;;;;;;;25.73;13.43;;;;;;;;;;5061644;28;20192;-71
2023/10/02 11:25:54;;;;;;;24.42;12.80;;;;;;;;;;5061226;28;20291;-71
2023/10/02 11:28:30;;;;;;;24.00;12.75;;;;;;;;;;5062784;28;20239;-72
2023/10/02 11:31:36;;;;;;;28.67;13.55;;;;;;;;;;5072740;28;20199;-72
2023/10/02 11:34:05;;;;;;;23.45;14.05;;;;;;;;;;5006496;28;20230;-71
2023/10/02 11:36:37;;;;;;;23.67;13.32;;;;;;;;;;5055179;28;20713;-71
2023/10/02 11:39:09;;;;;;;28.73;14.02;;;;;;;;;;5070644;28;20188;-72
2023/10/02 11:41:39;;;;;;;28.15;14.60;;;;;;;;;;5057442;28;20252;-71
2023/10/02 11:44:06;;;;;;;27.30;13.68;;;;;;;;;;5067736;28;20212;-73
2023/10/02 11:46:32;;;;;;;27.98;13.82;;;;;;;;;;5056696;28;20233;-72
2023/10/02 11:48:58;;;;;;;27.42;14.05;;;;;;;;;;5064237;28;20282;-72
2023/10/02 11:51:28;;;;;;;26.48;13.93;;;;;;;;;;5062649;28;20193;-71
2023/10/02 11:53:58;;;;;;;25.10;13.88;;;;;;;;;;5068026;28;20610;-73
2023/10/02 11:56:26;;;;;;;28.58;13.73;;;;;;;;;;5068407;28;20188;-69
2023/10/02 11:58:56;;;;;;;29.02;13.73;;;;;;;;;;5069106;28;20189;-70
2023/10/02 12:01:22;;;;;;;24.88;13.80;;;;;;;;;;5067722;28;20212;-70
2023/10/02 12:03:48;;;;;;;24.45;13.98;;;;;;;;;;5087620;28;20438;-73
2023/10/02 12:06:14;;;;;;;27.23;13.88;;;;;;;;;;5088013;28;20302;-71
2023/10/02 12:08:40;;;;;;;26.48;14.70;;;;;;;;;;5079813;28;20268;-72
2023/10/02 12:11:08;;;;;;;28.70;14.98;;;;;;;;;;5055624;28;20196;-73
2023/10/02 12:13:34;;;;;;;27.08;14.02;;;;;;;;;;5079241;28;20276;-72
2023/10/02 12:16:02;;;;;;;26.70;13.95;;;;;;;;;;5082375;28;20200;-72
2023/10/02 12:18:28;;;;;;;25.45;13.18;;;;;;;;;;5077339;28;20181;-71
2023/10/02 12:20:53;;;;;;;28.55;14.52;;;;;;;;;;5067873;28;20279;-73
2023/10/02 12:23:19;;;;;;;25.73;14.30;;;;;;;;;;5068736;28;20236;-71
2023/10/02 12:25:48;;;;;;;28.63;14.88;;;;;;;;;;5078252;28;20315;-74
2023/10/02 12:28:14;;;;;;;26.23;13.85;;;;;;;;;;5071268;28;20187;-75
2023/10/02 12:30:39;;;;;;;28.20;14.80;;;;;;;;;;5057997;28;20184;-74
2023/10/02 12:33:05;;;;;;;24.95;13.95;;;;;;;;;;5070345;28;20180;-74
2023/10/02 12:35:36;;;;;;;28.48;13.98;;;;;;;;;;5091183;28;20195;-75
2023/10/02 12:38:02;;;;;;;28.15;13.70;;;;;;;;;;5068705;28;20226;-70
2023/10/02 12:40:31;;;;;;;25.48;13.98;;;;;;;;;;5092257;28;20266;-73
2023/10/02 12:43:03;;;;;;;25.45;14.30;;;;;;;;;;5082411;28;20188;-74
2023/10/02 12:45:35;;;;;;;22.90;13.02;;;;;;;;;;5079824;28;20211;-72
2023/10/02 12:48:06;;;;;;;24.95;13.52;;;;;;;;;;5073771;28;20193;-74
2023/10/02 12:50:39;;;;;;;25.30;13.77;;;;;;;;;;5079878;28;20627;-73
2023/10/02 12:53:05;;;;;;;29.73;13.93;;;;;;;;;;5080951;28;20263;-73
2023/10/02 12:55:33;;;;;;;26.85;14.10;;;;;;;;;;5083391;28;20271;-73
2023/10/02 12:57:58;;;;;;;28.88;14.13;;;;;;;;;;5098849;28;20192;-71
2023/10/02 13:00:24;;;;;;;26.55;13.65;;;;;;;;;;5092203;28;20704;-73
2023/10/02 13:02:49;;;;;;;26.75;14.07;;;;;;;;;;5079079;28;20724;-74
2023/10/02 13:05:15;;;;;;;27.83;14.23;;;;;;;;;;5087482;28;20239;-74
2023/10/02 13:07:41;;;;;;;28.85;14.50;;;;;;;;;;5092470;28;20306;-72
2023/10/02 13:10:08;;;;;;;26.77;13.98;;;;;;;;;;5096075;28;20249;-74
2023/10/02 13:12:34;;;;;;;26.98;13.63;;;;;;;;;;5085978;28;20188;-71
2023/10/02 13:14:59;;;;;;;26.48;13.55;;;;;;;;;;5055098;28;20700;-73
2023/10/02 13:17:25;;;;;;;28.65;13.80;;;;;;;;;;5076184;28;20191;-73
2023/10/02 13:19:51;;;;;;;26.70;13.40;;;;;;;;;;5101101;28;20214;-74
2023/10/02 13:22:16;;;;;;;23.80;13.35;;;;;;;;;;5091617;28;20257;-74
2023/10/02 13:24:42;;;;;;;26.92;13.15;;;;;;;;;;5061867;28;20209;-71
2023/10/02 13:27:08;;;;;;;25.40;14.15;;;;;;;;;;5099328;28;20215;-74
2023/10/02 13:29:37;;;;;;;25.02;13.25;;;;;;;;;;5081911;28;20212;-73
2023/10/02 13:32:05;;;;;;;28.17;14.27;;;;;;;;;;5078520;28;20286;-69
2023/10/02 13:34:31;;;;;;;28.75;14.55;;;;;;;;;;5079728;28;20189;-75
2023/10/02 13:36:57;;;;;;;28.80;14.15;;;;;;;;;;5074033;28;20188;-75
2023/10/02 13:39:23;;;;;;;30.30;14.27;;;;;;;;;;5097022;28;20186;-73
2023/10/02 13:41:48;;;;;;;22.92;13.50;;;;;;;;;;5096263;28;20196;-73
2023/10/02 13:44:14;;;;;;;24.80;13.20;;;;;;;;;;5081493;28;20249;-74
2023/10/02 13:46:39;;;;;;;21.77;12.10;;;;;;;;;;5104046;28;20282;-71
2023/10/02 13:49:05;;;;;;;26.88;13.75;;;;;;;;;;5092333;28;20721;-72
2023/10/02 13:51:31;;;;;;;22.95;12.73;;;;;;;;;;5090578;28;20188;-73
2023/10/02 13:53:57;;;;;;;27.25;13.90;;;;;;;;;;5062515;28;20194;-73
2023/10/02 13:56:25;;;;;;;25.95;13.10;;;;;;;;;;5058710;28;20275;-73
2023/10/02 13:58:53;;;;;;;27.55;13.50;;;;;;;;;;5080541;28;20659;-71
2023/10/02 14:01:20;;;;;;;23.38;13.13;;;;;;;;;;5091925;28;20231;-69
2023/10/02 14:03:49;;;;;;;21.48;12.23;;;;;;;;;;5093237;28;20230;-72
2023/10/02 14:06:15;;;;;;;23.27;12.90;;;;;;;;;;5069887;28;20203;-72
2023/10/02 14:08:41;;;;;;;24.65;13.35;;;;;;;;;;5078561;28;20271;-73
2023/10/02 14:11:10;;;;;;;27.20;13.45;;;;;;;;;;5061582;28;20216;-72
2023/10/02 14:13:36;;;;;;;25.13;13.80;;;;;;;;;;5084100;28;20208;-71
2023/10/02 14:16:05;;;;;;;23.05;13.02;;;;;;;;;;5086043;28;20181;-72
2023/10/02 14:18:31;;;;;;;27.60;14.48;;;;;;;;;;5091462;28;20191;-73
2023/10/02 14:21:07;;;;;;;29.02;13.82;;;;;;;;;;5092410;28;20194;-72
2023/10/02 14:23:34;;;;;;;23.65;13.82;;;;;;;;;;5082853;28;20505;-73
2023/10/02 14:26:00;;;;;;;26.40;13.55;;;;;;;;;;5097006;28;20205;-73
2023/10/02 14:28:27;;;;;;;23.08;12.77;;;;;;;;;;5097909;28;20684;-72
2023/10/02 14:30:53;;;;;;;28.45;14.95;;;;;;;;;;5091904;28;20572;-71
2023/10/02 14:33:19;;;;;;;24.58;14.07;;;;;;;;;;5070679;28;20671;-70
2023/10/02 14:35:44;;;;;;;25.88;14.07;;;;;;;;;;5089701;28;20199;-73
2023/10/02 14:38:11;;;;;;;28.42;14.48;;;;;;;;;;5084969;28;20556;-71
2023/10/02 14:40:38;;;;;;;29.38;15.38;;;;;;;;;;5088402;28;20185;-72
2023/10/02 14:43:03;;;;;;;30.80;15.30;;;;;;;;;;5079104;28;20192;-71
2023/10/02 14:45:29;;;;;;;28.40;14.75;;;;;;;;;;5093911;28;20215;-72
2023/10/02 14:47:56;;;;;;;25.30;14.00;;;;;;;;;;5083506;28;20193;-70
2023/10/02 14:50:23;;;;;;;25.70;14.02;;;;;;;;;;5075094;28;20562;-72
2023/10/02 14:52:50;;;;;;;27.45;14.75;;;;;;;;;;5075492;28;20196;-72
2023/10/02 14:55:17;;;;;;;25.35;13.65;;;;;;;;;;5077933;28;20184;-72
2023/10/02 14:57:45;;;;;;;28.67;14.70;;;;;;;;;;5098840;28;20529;-74
2023/10/02 15:00:13;;;;;;;29.58;15.27;;;;;;;;;;5065836;28;20185;-72
2023/10/02 15:02:38;;;;;;;29.40;13.98;;;;;;;;;;5091600;28;20796;-74
2023/10/02 15:05:04;;;;;;;28.75;14.25;;;;;;;;;;5095961;28;20204;-74
2023/10/02 15:07:30;;;;;;;26.65;14.68;;;;;;;;;;5082444;28;20219;-74
2023/10/02 15:09:55;;;;;;;30.55;15.25;;;;;;;;;;5092888;28;20251;-73
2023/10/02 15:12:21;;;;;;;30.10;14.85;;;;;;;;;;5096614;28;20191;-74
2023/10/02 15:14:46;;;;;;;26.30;14.25;;;;;;;;;;5074843;28;20260;-72
2023/10/02 15:17:11;;;;;;;29.42;14.68;;;;;;;;;;5095659;28;20184;-73
2023/10/02 15:19:37;;;;;;;27.45;14.82;;;;;;;;;;5083961;28;20200;-73
2023/10/02 15:22:03;;;;;;;26.52;13.77;;;;;;;;;;5070572;28;20227;-73
2023/10/02 15:24:35;;;;;;;28.70;14.65;;;;;;;;;;5066000;28;20321;-71
2023/10/02 15:27:01;;;;;;;26.98;14.45;;;;;;;;;;5088759;28;20214;-73
2023/10/02 15:29:27;;;;;;;28.80;14.18;;;;;;;;;;5093885;28;20215;-72
2023/10/02 15:31:52;;;;;;;24.98;14.13;;;;;;;;;;5090791;28;20188;-72
2023/10/02 15:34:19;;;;;;;28.13;13.93;;;;;;;;;;5075272;28;20658;-71
2023/10/02 15:36:45;;;;;;;31.13;14.98;;;;;;;;;;5059287;28;20185;-71
2023/10/02 15:39:13;;;;;;;26.58;13.70;;;;;;;;;;5081955;28;20487;-73
2023/10/02 15:41:44;;;;;;;27.10;14.27;;;;;;;;;;5065851;28;20192;-73